Wesleyville, Canada
Current Conditions -  °F | °C
As of 7:00 PM on Monday 24 Nov 2014 (Local Time) from CYQX Reporting Station
Overcast Overcast  
Wind Chill: -8°   Ceiling: 24000
Heat Index: -3°   Visibility: 20mi
Dew Point: -9°   Wind: 9mph
Humidity: 64%   Direction: 170°S
Pressure: 30.32"   Gusts: NA
Location:  49.15°N, 53.58°W
Report Text: CYQX 242200Z 17008KT 20SM SCT180 OVC240 M03/M09 A3032 RMK AC3CS5 SLP277
Loading
Personal Weather Stations






























Interactive Weather Map New forecast layout! Learn more

10-Day Weather Forecast

Advertisements
Track Severe Weather on mobile